Time;durP1;ratioP1;P1;durP2;ratioP2;P2;SDS_P1;SDS_P2;PMS_P1;PMS_P2;Temp;Humidity;BMP_temperature;BMP_pressure;BME280_temperature;BME280_humidity;BME280_pressure;Samples;Min_cycle;Max_cycle;Signal;HPM_P1;HPM_P2
2022/09/04 00:01:07;;;;;;;2.80;1.73;;;25.10;57.60;;;;;;5072703;28;20052;-78
2022/09/04 00:03:57;;;;;;;4.68;2.67;;;25.00;57.20;;;;;;5072873;28;20467;-78
2022/09/04 00:06:39;;;;;;;7.18;2.58;;;25.00;58.20;;;;;;5072738;28;20115;-78
2022/09/04 00:09:05;;;;;;;;;;;25.00;58.70;;;;;;5076979;28;20036;-78
2022/09/04 00:11:46;;;;;;;2.38;1.63;;;24.90;58.50;;;;;;5077280;28;19991;-78
2022/09/04 00:14:34;;;;;;;2.45;1.55;;;24.90;58.40;;;;;;5077093;28;20032;-79
2022/09/04 00:17:04;;;;;;;3.00;1.95;;;24.80;58.40;;;;;;5077102;28;20028;-78
2022/09/04 00:20:03;;;;;;;4.07;2.13;;;24.70;58.30;;;;;;5076912;28;20483;-77
2022/09/04 00:22:46;;;;;;;2.75;2.20;;;24.80;59.40;;;;;;5067792;28;20032;-78
2022/09/04 00:25:18;;;;;;;;;;;24.80;58.90;;;;;;5077413;28;20094;-77
2022/09/04 00:27:49;;;;;;;4.45;2.20;;;24.70;60.20;;;;;;5076853;28;19905;-78
2022/09/04 00:30:21;;;;;;;6.78;3.35;;;24.60;60.20;;;;;;5077198;28;20090;-78
2022/09/04 00:32:53;;;;;;;6.43;2.60;;;24.60;61.20;;;;;;5076851;28;20383;-78
2022/09/04 00:35:30;;;;;;;4.47;3.17;;;24.40;61.60;;;;;;5076828;28;20412;-77
2022/09/04 00:37:56;;;;;;;5.05;3.30;;;24.40;62.20;;;;;;5076992;28;20016;-78
2022/09/04 00:40:41;;;;;;;3.47;2.70;;;24.30;62.40;;;;;;5076978;28;20047;-77
2022/09/04 00:43:35;;;;;;;4.20;1.63;;;24.20;62.40;;;;;;5076565;28;20080;-78
2022/09/04 00:46:26;;;;;;;3.25;2.17;;;24.20;62.10;;;;;;5076558;28;20027;-77
2022/09/04 00:49:10;;;;;;;8.20;3.40;;;24.20;61.90;;;;;;5076341;28;20035;-77
2022/09/04 00:51:44;;;;;;;4.80;2.75;;;24.20;62.10;;;;;;5076332;28;20016;-78
2022/09/04 00:54:42;;;;;;;3.45;2.40;;;24.20;61.90;;;;;;5076582;28;20025;-78
2022/09/04 00:57:36;;;;;;;3.20;2.00;;;24.20;61.80;;;;;;5076704;28;20117;-78
2022/09/04 01:00:11;;;;;;;5.60;2.53;;;24.20;61.50;;;;;;5076208;28;20024;-79
2022/09/04 01:03:21;;;;;;;4.82;2.85;;;24.20;62.60;;;;;;5076472;28;20020;-79
2022/09/04 01:06:09;;;;;;;3.75;2.10;;;24.20;62.30;;;;;;5066804;28;20426;-79
2022/09/04 01:08:54;;;;;;;3.22;2.22;;;24.10;62.30;;;;;;5075839;28;20128;-79
2022/09/04 01:11:47;;;;;;;2.88;2.35;;;24.10;62.70;;;;;;5075867;28;20021;-79
2022/09/04 01:14:21;;;;;;;5.05;3.50;;;24.10;62.50;;;;;;5076025;28;20096;-79
2022/09/04 01:17:24;;;;;;;4.55;2.47;;;24.10;65.70;;;;;;5076066;28;20037;-79
2022/09/04 01:20:19;;;;;;;5.47;3.55;;;23.90;65.10;;;;;;5075993;28;20436;-78
2022/09/04 01:23:12;;;;;;;3.92;2.72;;;23.80;66.00;;;;;;5075704;28;20020;-79
2022/09/04 01:26:21;;;;;;;3.90;2.70;;;23.70;66.10;;;;;;5075761;28;20142;-78
2022/09/04 01:28:55;;;;;;;6.60;3.42;;;23.60;66.30;;;;;;5075946;28;20036;-79
2022/09/04 01:31:48;;;;;;;5.20;3.30;;;23.50;67.00;;;;;;5075814;28;20052;-78
2022/09/04 01:34:52;;;;;;;5.13;2.50;;;23.50;66.60;;;;;;5075655;28;20475;-78
2022/09/04 01:37:43;;;;;;;4.80;4.30;;;23.40;66.70;;;;;;5075751;28;20025;-78
2022/09/04 01:40:51;;;;;;;3.78;2.45;;;23.40;67.70;;;;;;5075743;28;20021;-78
2022/09/04 01:43:21;;;;;;;4.32;2.50;;;23.30;66.80;;;;;;5055433;28;20039;-79
2022/09/04 01:45:56;;;;;;;3.63;2.20;;;23.30;67.40;;;;;;5075106;28;20027;-79
2022/09/04 01:48:43;;;;;;;1.95;1.75;;;23.40;66.50;;;;;;5075604;28;20032;-79
2022/09/04 01:51:31;;;;;;;3.70;2.83;;;23.50;65.50;;;;;;5075537;28;20024;-79
2022/09/04 01:54:21;;;;;;;4.00;3.22;;;23.50;66.00;;;;;;5075441;28;20468;-79
2022/09/04 01:57:23;;;;;;;5.15;4.65;;;23.50;66.50;;;;;;5074982;28;20033;-78
2022/09/04 02:00:11;;;;;;;2.97;2.67;;;23.40;67.80;;;;;;5075217;28;20043;-79
2022/09/04 02:03:09;;;;;;;3.90;3.00;;;23.30;67.80;;;;;;5075065;28;20430;-78
2022/09/04 02:06:14;;;;;;;2.42;2.22;;;23.20;67.80;;;;;;5075083;28;20032;-78
2022/09/04 02:08:53;;;;;;;2.33;1.65;;;23.20;67.20;;;;;;5073752;28;20041;-78
2022/09/04 02:11:25;;;;;;;2.40;1.80;;;23.30;66.50;;;;;;5075054;28;20495;-78
2022/09/04 02:14:18;;;;;;;4.27;2.50;;;23.40;66.10;;;;;;5075264;28;20021;-78
2022/09/04 02:17:10;;;;;;;4.25;2.78;;;23.40;66.50;;;;;;5075114;28;20093;-78
2022/09/04 02:19:41;;;;;;;3.13;2.47;;;23.40;66.90;;;;;;5074822;28;20025;-78
2022/09/04 02:22:22;;;;;;;3.88;3.58;;;23.40;66.80;;;;;;5075029;28;20028;-78
2022/09/04 02:24:55;;;;;;;3.75;3.15;;;23.40;67.90;;;;;;5074822;28;20037;-78
2022/09/04 02:27:43;;;;;;;5.45;3.90;;;23.30;67.70;;;;;;5074637;28;20024;-79
2022/09/04 02:30:12;;;;;;;2.55;1.88;;;23.40;68.10;;;;;;5074156;28;20029;-78
2022/09/04 02:32:59;;;;;;;4.65;2.42;;;23.40;67.30;;;;;;5074301;28;20476;-78
2022/09/04 02:35:34;;;;;;;4.13;2.92;;;23.40;67.10;;;;;;5074482;28;20476;-78
2022/09/04 02:38:34;;;;;;;2.08;1.88;;;23.40;67.30;;;;;;5074222;28;20025;-78
2022/09/04 02:41:30;;;;;;;3.17;2.80;;;23.40;66.60;;;;;;5051323;28;20430;-78
2022/09/04 02:44:23;;;;;;;3.53;2.78;;;23.40;66.80;;;;;;5074371;28;20114;-78
2022/09/04 02:47:12;;;;;;;6.93;4.47;;;23.50;67.50;;;;;;5074402;28;20105;-78
2022/09/04 02:49:56;;;;;;;5.97;5.38;;;23.40;67.60;;;;;;5074536;28;20037;-78
2022/09/04 02:52:32;;;;;;;3.78;2.33;;;23.40;68.50;;;;;;5074274;28;20017;-78
2022/09/04 02:55:22;;;;;;;3.10;2.30;;;23.40;68.00;;;;;;5074155;28;20427;-78
2022/09/04 02:58:00;;;;;;;5.82;4.43;;;23.40;67.30;;;;;;5073740;28;20032;-78
2022/09/04 03:01:08;;;;;;;2.88;2.67;;;23.40;67.80;;;;;;5074312;28;20360;-78
2022/09/04 03:03:47;;;;;;;2.78;2.30;;;23.40;67.10;;;;;;5066943;28;20476;-78
2022/09/04 03:06:22;;;;;;;3.72;1.65;;;23.40;66.80;;;;;;5074008;28;20036;-78
2022/09/04 03:09:06;;;;;;;2.53;2.33;;;23.50;66.40;;;;;;5073852;28;20120;-78
2022/09/04 03:11:49;;;;;;;3.83;2.30;;;23.50;66.10;;;;;;5074063;28;20081;-78
2022/09/04 03:14:25;;;;;;;4.35;3.42;;;23.50;66.00;;;;;;5073915;28;20032;-78
2022/09/04 03:17:01;;;;;;;4.40;2.92;;;23.50;67.20;;;;;;5073753;28;20077;-78
2022/09/04 03:19:39;;;;;;;3.35;2.78;;;23.40;67.10;;;;;;5073404;28;20434;-79
2022/09/04 03:22:21;;;;;;;2.83;2.22;;;23.40;67.30;;;;;;5073603;28;20372;-79
2022/09/04 03:25:05;;;;;;;3.30;1.50;;;23.40;66.70;;;;;;5073614;28;20053;-78
2022/09/04 03:27:32;;;;;;;1.92;1.77;;;23.40;66.20;;;;;;5073585;28;20035;-79
2022/09/04 03:30:09;;;;;;;2.75;1.83;;;23.50;66.00;;;;;;5073617;28;20058;-79
2022/09/04 03:33:20;;;;;;;3.75;2.78;;;23.50;65.90;;;;;;5073580;28;20035;-79
2022/09/04 03:35:48;;;;;;;3.42;2.53;;;23.50;66.10;;;;;;5073476;28;20464;-79
2022/09/04 03:38:29;;;;;;;3.30;3.00;;;23.50;66.40;;;;;;5073249;28;20056;-78
2022/09/04 03:41:28;;;;;;;2.75;2.13;;;23.50;66.90;;;;;;5073406;28;20472;-78
2022/09/04 03:44:21;;;;;;;3.83;2.25;;;23.50;66.60;;;;;;5072682;28;20087;-79
2022/09/04 03:47:31;;;;;;;3.38;2.85;;;23.40;66.80;;;;;;5073396;28;20103;-79
2022/09/04 03:50:03;;;;;;;3.20;2.90;;;23.30;67.20;;;;;;5072775;28;20492;-79
2022/09/04 03:52:44;;;;;;;3.17;2.83;;;23.30;68.40;;;;;;5073320;28;20028;-79
2022/09/04 03:55:33;;;;;;;2.92;2.63;;;23.20;68.80;;;;;;5073418;28;20028;-78
2022/09/04 03:58:11;;;;;;;3.33;2.40;;;23.10;68.50;;;;;;5073425;28;20024;-79
2022/09/04 04:00:58;;;;;;;3.70;3.33;;;23.20;68.40;;;;;;5073192;28;20034;-79
2022/09/04 04:04:34;;;;;;;6.22;4.35;;;23.20;67.90;;;;;;5073425;28;20426;-77
2022/09/04 04:07:20;;;;;;;3.92;3.30;;;23.20;68.70;;;;;;5055413;28;20357;-77
2022/09/04 04:09:48;;;;;;;5.38;3.55;;;23.00;69.30;;;;;;5073296;28;20127;-78
2022/09/04 04:12:26;;;;;;;3.65;2.25;;;23.00;69.20;;;;;;5073272;28;20012;-77
2022/09/04 04:15:30;;;;;;;4.40;3.00;;;23.00;68.80;;;;;;5073179;28;20020;-77
2022/09/04 04:18:29;;;;;;;2.75;2.45;;;23.10;69.20;;;;;;5070710;28;20523;-77
2022/09/04 04:21:06;;;;;;;4.57;2.65;;;23.00;68.90;;;;;;5072949;28;20025;-77
2022/09/04 04:23:56;;;;;;;3.63;2.22;;;23.00;69.10;;;;;;5073010;28;20099;-77
2022/09/04 04:27:03;;;;;;;4.72;3.13;;;23.00;68.70;;;;;;5072713;28;20450;-77
2022/09/04 04:29:53;;;;;;;2.35;1.55;;;23.10;68.30;;;;;;5030762;28;20386;-77
2022/09/04 04:32:36;;;;;;;2.33;1.98;;;23.10;67.90;;;;;;5072427;28;20037;-77
2022/09/04 04:35:15;;;;;;;2.65;2.20;;;23.10;67.40;;;;;;5072809;28;20032;-77
2022/09/04 04:38:08;;;;;;;3.83;3.40;;;23.20;67.40;;;;;;5072754;28;20429;-77
2022/09/04 04:40:52;;;;;;;5.45;4.78;;;23.20;68.50;;;;;;5073083;28;20016;-77
2022/09/04 04:43:35;;;;;;;2.92;2.67;;;23.10;68.90;;;;;;5073097;28;20021;-78
2022/09/04 04:46:21;;;;;;;3.83;2.92;;;23.10;68.70;;;;;;5073029;28;20094;-78
2022/09/04 04:49:34;;;;;;;3.85;3.55;;;23.10;68.30;;;;;;5072360;28;20480;-78
2022/09/04 04:52:17;;;;;;;2.58;2.05;;;23.10;69.10;;;;;;5010786;28;20087;-78
2022/09/04 04:55:14;;;;;;;2.35;1.85;;;23.10;68.10;;;;;;5013339;28;20429;-78
2022/09/04 04:58:33;;;;;;;3.10;2.80;;;23.10;67.80;;;;;;5055974;28;20033;-78
2022/09/04 05:01:19;;;;;;;5.35;4.85;;;23.20;67.80;;;;;;5076590;28;20047;-78
2022/09/04 05:04:03;;;;;;;4.78;4.38;;;23.20;68.90;;;;;;5076236;28;20020;-78
2022/09/04 05:06:50;;;;;;;4.60;3.65;;;23.10;69.20;;;;;;5076373;28;20357;-78
2022/09/04 05:09:37;;;;;;;3.85;2.72;;;23.00;68.90;;;;;;5076437;28;20082;-78
2022/09/04 05:12:09;;;;;;;3.33;2.10;;;23.00;68.90;;;;;;5075764;28;20020;-78
2022/09/04 05:14:38;;;;;;;;;;;23.00;68.40;;;;;;5076619;28;20039;-78
2022/09/04 05:17:28;;;;;;;2.60;2.20;;;23.00;69.20;;;;;;5076144;28;19962;-79
2022/09/04 05:20:31;;;;;;;3.38;2.63;;;23.00;68.90;;;;;;5075960;28;20472;-78
2022/09/04 05:23:08;;;;;;;2.95;2.30;;;23.00;68.60;;;;;;5075972;28;20029;-77
2022/09/04 05:25:58;;;;;;;4.90;3.80;;;23.00;68.60;;;;;;5075684;28;20492;-77
2022/09/04 05:28:42;;;;;;;2.85;2.55;;;23.00;69.50;;;;;;5075643;28;20036;-77
2022/09/04 05:31:37;;;;;;;2.38;1.58;;;22.90;68.90;;;;;;5075925;28;20016;-77
2022/09/04 05:34:09;;;;;;;3.90;3.47;;;23.00;68.70;;;;;;5075855;28;20383;-77
2022/09/04 05:36:53;;;;;;;4.82;3.08;;;23.00;69.10;;;;;;5076008;28;20031;-78
2022/09/04 05:39:33;;;;;;;3.92;3.33;;;23.00;69.20;;;;;;5075560;28;20029;-77
2022/09/04 05:42:39;;;;;;;2.28;2.03;;;23.00;69.20;;;;;;5075964;28;20028;-77
2022/09/04 05:45:07;;;;;;;6.05;5.45;;;23.00;68.80;;;;;;5075349;28;20100;-78
2022/09/04 05:48:07;;;;;;;6.45;4.80;;;23.00;69.30;;;;;;5075656;28;20123;-78
2022/09/04 05:50:55;;;;;;;4.85;3.78;;;23.00;70.00;;;;;;5075559;28;20091;-78
2022/09/04 05:53:46;;;;;;;5.80;4.90;;;23.00;70.00;;;;;;5075217;28;20094;-78
2022/09/04 05:56:32;;;;;;;3.05;2.50;;;22.80;70.90;;;;;;5075029;28;20020;-78
2022/09/04 05:59:10;;;;;;;6.68;5.93;;;22.90;70.50;;;;;;5075339;28;20056;-78
2022/09/04 06:01:49;;;;;;;4.40;3.92;;;22.80;71.00;;;;;;5075180;28;20025;-78
2022/09/04 06:04:42;;;;;;;5.07;4.40;;;22.70;71.00;;;;;;5075083;28;20456;-78
2022/09/04 06:07:35;;;;;;;4.60;4.20;;;22.80;71.00;;;;;;5074828;28;20062;-77
2022/09/04 06:10:16;;;;;;;3.83;3.45;;;22.80;71.10;;;;;;5074413;28;20043;-78
2022/09/04 06:12:44;;;;;;;8.80;5.18;;;22.80;71.40;;;;;;5075149;28;20039;-78
2022/09/04 06:15:44;;;;;;;7.53;5.13;;;22.80;71.70;;;;;;5075173;28;20027;-78
2022/09/04 06:18:16;;;;;;;8.65;5.88;;;22.70;72.20;;;;;;5074359;28;20024;-78
2022/09/04 06:21:10;;;;;;;;;;;22.60;72.40;;;;;;5075093;28;20055;-78
2022/09/04 06:24:30;;;;;;;3.30;2.97;;;22.70;72.60;;;;;;5020010;28;19956;-78
2022/09/04 06:27:33;;;;;;;7.47;5.18;;;22.70;72.10;;;;;;5050203;28;20102;-78
2022/09/04 06:30:06;;;;;;;3.55;3.25;;;22.70;72.70;;;;;;5074185;28;20033;-78
2022/09/04 06:32:50;;;;;;;5.60;4.95;;;22.70;72.40;;;;;;5074489;28;20464;-78
2022/09/04 06:35:55;;;;;;;8.13;7.15;;;22.70;73.30;;;;;;5074060;28;20016;-78
2022/09/04 06:38:50;;;;;;;5.72;4.88;;;22.70;73.90;;;;;;5074654;28;20051;-78
2022/09/04 06:41:27;;;;;;;5.70;5.20;;;22.70;73.40;;;;;;5074346;28;20494;-78
2022/09/04 06:44:11;;;;;;;7.78;6.55;;;22.70;73.70;;;;;;5074165;28;20025;-79
2022/09/04 06:46:48;;;;;;;4.75;4.03;;;22.60;75.00;;;;;;5074263;28;20024;-78
2022/09/04 06:49:39;;;;;;;4.40;3.25;;;22.50;74.70;;;;;;5074214;28;20133;-79
2022/09/04 06:52:20;;;;;;;5.60;5.10;;;22.60;73.60;;;;;;5073812;28;20456;-79
2022/09/04 06:54:52;;;;;;;4.03;3.65;;;22.70;73.40;;;;;;5074161;28;20047;-78
2022/09/04 06:57:24;;;;;;;5.00;4.50;;;22.80;72.90;;;;;;5074246;28;20051;-79
2022/09/04 07:00:01;;;;;;;4.95;4.45;;;22.90;73.60;;;;;;5073977;28;20032;-79
2022/09/04 07:02:48;;;;;;;8.93;7.63;;;22.90;73.70;;;;;;5074001;28;20025;-79
2022/09/04 07:05:20;;;;;;;7.18;5.38;;;23.00;74.50;;;;;;5074012;28;20371;-79
2022/09/04 07:08:28;;;;;;;6.70;4.47;;;23.00;74.60;;;;;;5073788;28;20532;-79
2022/09/04 07:11:18;;;;;;;5.82;5.18;;;23.00;74.20;;;;;;5011889;28;20065;-79
2022/09/04 07:14:15;;;;;;;6.72;6.00;;;23.00;74.60;;;;;;5070739;28;20054;-79
2022/09/04 07:16:43;;;;;;;3.97;3.50;;;23.10;74.10;;;;;;5073394;28;20020;-79
2022/09/04 07:19:31;;;;;;;4.28;3.45;;;23.20;73.40;;;;;;5073636;28;20040;-79
2022/09/04 07:22:18;;;;;;;8.57;7.53;;;23.30;72.30;;;;;;5073824;28;20029;-79
2022/09/04 07:24:47;;;;;;;5.63;4.70;;;23.30;73.40;;;;;;5073407;28;20040;-79
2022/09/04 07:27:46;;;;;;;6.80;3.72;;;23.20;73.70;;;;;;5073212;28;20021;-79
2022/09/04 07:30:16;;;;;;;4.50;4.10;;;23.20;72.80;;;;;;5073404;28;20032;-79
2022/09/04 07:32:50;;;;;;;4.35;3.55;;;23.20;73.00;;;;;;5073472;28;20464;-79
2022/09/04 07:35:40;;;;;;;9.27;6.40;;;23.20;72.80;;;;;;5073408;28;20024;-79
2022/09/04 07:38:09;;;;;;;4.10;3.50;;;23.20;73.80;;;;;;5073096;28;20013;-79
2022/09/04 07:40:54;;;;;;;9.48;6.82;;;23.20;73.30;;;;;;5073624;28;20044;-79
2022/09/04 07:43:34;;;;;;;11.50;7.93;;;23.20;73.60;;;;;;5073298;28;20104;-79
2022/09/04 07:46:29;;;;;;;10.52;9.23;;;23.30;75.40;;;;;;5073082;28;20028;-77
2022/09/04 07:49:03;;;;;;;10.32;8.95;;;23.20;76.90;;;;;;5067991;28;20118;-78
2022/09/04 07:51:41;;;;;;;9.77;6.88;;;23.00;77.80;;;;;;5073202;28;20431;-78
2022/09/04 07:54:36;;;;;;;11.80;7.05;;;23.10;77.10;;;;;;5073242;28;20029;-78
2022/09/04 07:57:40;;;;;;;11.60;8.15;;;23.20;76.30;;;;;;5073281;28;20033;-78
2022/09/04 08:00:12;;;;;;;9.93;7.65;;;23.30;77.00;;;;;;5038553;28;20115;-78
2022/09/04 08:02:50;;;;;;;;;;;23.30;77.60;;;;;;5073357;28;20028;-78
2022/09/04 08:05:32;;;;;;;10.02;6.95;;;23.30;77.20;;;;;;5073098;28;19911;-78
2022/09/04 08:08:29;;;;;;;6.77;5.43;;;23.50;76.20;;;;;;5073240;28;20028;-78
2022/09/04 08:11:16;;;;;;;7.43;5.57;;;23.60;75.70;;;;;;5072833;28;20350;-78
2022/09/04 08:14:11;;;;;;;8.13;6.43;;;23.80;75.00;;;;;;5073192;28;20150;-79
2022/09/04 08:17:09;;;;;;;5.95;5.05;;;23.90;75.00;;;;;;5072931;28;20473;-78
2022/09/04 08:19:47;;;;;;;9.68;6.90;;;24.00;74.70;;;;;;5072889;28;20058;-79
2022/09/04 08:22:23;;;;;;;6.38;5.32;;;24.10;74.70;;;;;;5072828;28;20074;-79
2022/09/04 08:25:15;;;;;;;7.70;5.82;;;24.20;74.10;;;;;;5072910;28;20114;-77
2022/09/04 08:28:03;;;;;;;7.63;6.10;;;24.30;73.40;;;;;;5072780;28;20029;-78
2022/09/04 08:30:37;;;;;;;6.28;5.68;;;24.40;73.80;;;;;;5076767;28;20217;-78
2022/09/04 08:33:27;;;;;;;6.88;5.53;;;24.50;73.70;;;;;;5077165;28;20029;-78
2022/09/04 08:36:09;;;;;;;7.55;6.25;;;24.50;73.50;;;;;;5076689;28;20027;-78
2022/09/04 08:39:01;;;;;;;9.55;6.60;;;24.70;73.40;;;;;;5076698;28;20204;-79
2022/09/04 08:41:47;;;;;;;;;;;24.60;73.80;;;;;;5077420;28;20029;-79
2022/09/04 08:44:29;;;;;;;7.90;5.93;;;24.60;73.70;;;;;;5076534;28;19904;-78
2022/09/04 08:47:12;;;;;;;6.72;6.05;;;24.60;73.80;;;;;;5076713;28;20028;-79
2022/09/04 08:50:33;;;;;;;5.68;3.90;;;24.80;72.90;;;;;;5076509;28;20485;-78
2022/09/04 08:53:27;;;;;;;7.40;5.40;;;25.00;71.90;;;;;;5034150;28;20037;-78
2022/09/04 08:56:17;;;;;;;5.28;4.78;;;25.00;71.90;;;;;;5075233;28;20045;-78
2022/09/04 08:59:16;;;;;;;6.28;5.00;;;25.20;71.50;;;;;;5075813;28;20034;-78
2022/09/04 09:01:57;;;;;;;7.50;4.97;;;25.20;70.90;;;;;;5076227;28;20017;-78
2022/09/04 09:05:08;;;;;;;9.80;4.55;;;25.30;70.90;;;;;;5076198;28;20372;-78
2022/09/04 09:07:53;;;;;;;6.05;4.97;;;25.40;71.10;;;;;;5075884;28;20077;-78
2022/09/04 09:10:45;;;;;;;6.45;5.75;;;25.50;70.60;;;;;;5076228;28;20028;-78
2022/09/04 09:13:26;;;;;;;7.10;4.55;;;25.60;70.90;;;;;;5076051;28;20028;-78
2022/09/04 09:16:19;;;;;;;8.52;5.10;;;25.70;70.20;;;;;;5076153;28;20025;-78
2022/09/04 09:19:06;;;;;;;9.07;6.70;;;25.70;70.40;;;;;;5076013;28;20024;-78
2022/09/04 09:22:07;;;;;;;6.65;4.60;;;25.70;70.80;;;;;;5075976;28;20054;-78
2022/09/04 09:25:08;;;;;;;6.15;4.28;;;25.80;70.00;;;;;;5075924;28;20032;-78
2022/09/04 09:28:05;;;;;;;8.55;4.63;;;26.00;69.70;;;;;;5075553;28;20510;-78
2022/09/04 09:31:05;;;;;;;4.72;4.18;;;26.20;69.40;;;;;;5055967;28;20082;-78
2022/09/04 09:34:01;;;;;;;5.05;4.57;;;26.30;69.00;;;;;;5075898;28;20024;-78
2022/09/04 09:36:43;;;;;;;5.78;4.70;;;26.50;68.90;;;;;;5075629;28;20066;-78
2022/09/04 09:39:22;;;;;;;3.35;3.05;;;26.30;69.30;;;;;;5075750;28;20028;-78
2022/09/04 09:41:50;;;;;;;6.22;3.30;;;26.30;68.80;;;;;;5074314;28;20102;-79
2022/09/04 09:44:21;;;;;;;4.60;3.00;;;26.50;68.00;;;;;;5075611;28;20025;-79
2022/09/04 09:47:11;;;;;;;4.28;3.67;;;26.70;67.20;;;;;;5075428;28;20035;-79
2022/09/04 09:49:56;;;;;;;7.20;3.40;;;26.90;66.90;;;;;;5075476;28;20032;-79
2022/09/04 09:52:28;;;;;;;3.50;2.53;;;27.00;66.70;;;;;;5075456;28;20383;-79
2022/09/04 09:55:15;;;;;;;3.97;2.53;;;27.10;66.20;;;;;;5075178;28;20598;-79
2022/09/04 09:58:18;;;;;;;6.43;4.43;;;27.30;66.40;;;;;;5075444;28;20042;-79
2022/09/04 10:01:03;;;;;;;3.78;3.25;;;27.30;65.20;;;;;;5075335;28;20028;-79
2022/09/04 10:03:37;;;;;;;4.00;3.30;;;27.40;65.20;;;;;;5074949;28;20028;-79
2022/09/04 10:06:28;;;;;;;7.57;2.80;;;27.50;64.80;;;;;;5075370;28;20021;-78
2022/09/04 10:09:08;;;;;;;3.78;2.30;;;27.60;64.80;;;;;;5075059;28;20086;-79
2022/09/04 10:12:00;;;;;;;7.18;3.35;;;27.70;65.10;;;;;;5074961;28;20460;-79
2022/09/04 10:14:53;;;;;;;4.10;3.30;;;27.70;64.00;;;;;;5075196;28;20037;-78
2022/09/04 10:17:31;;;;;;;2.95;2.33;;;27.80;63.50;;;;;;5074968;28;20090;-79
2022/09/04 10:20:15;;;;;;;5.22;2.95;;;27.90;63.50;;;;;;5074801;28;20025;-81
2022/09/04 10:22:54;;;;;;;2.63;2.05;;;28.00;62.80;;;;;;5074966;28;20021;-80
2022/09/04 10:25:27;;;;;;;2.88;2.05;;;28.10;62.50;;;;;;5074485;28;20044;-80
2022/09/04 10:28:41;;;;;;;2.55;2.05;;;28.20;62.30;;;;;;5074669;28;20020;-80
2022/09/04 10:31:10;;;;;;;2.85;1.50;;;28.30;61.50;;;;;;5065085;28;20047;-79
2022/09/04 10:34:13;;;;;;;2.88;2.05;;;28.20;61.60;;;;;;5074591;28;20368;-79
2022/09/04 10:36:59;;;;;;;3.45;2.00;;;28.40;61.70;;;;;;5074502;28;20034;-79
2022/09/04 10:43:12;;;;;;;3.20;2.22;;;28.50;61.40;;;;;;5074287;28;20046;-79
2022/09/04 10:45:59;;;;;;;2.70;1.80;;;28.50;61.30;;;;;;5074098;28;20107;-79
2022/09/04 10:48:43;;;;;;;3.40;1.88;;;28.60;61.20;;;;;;5074366;28;20040;-79
2022/09/04 10:51:36;;;;;;;4.53;2.13;;;28.70;61.00;;;;;;5073898;28;20147;-80
2022/09/04 10:54:20;;;;;;;4.45;2.50;;;28.80;60.20;;;;;;5074023;28;20028;-79
2022/09/04 10:56:57;;;;;;;2.28;1.60;;;28.80;60.40;;;;;;5074330;28;20119;-79
2022/09/04 10:59:26;;;;;;;4.80;1.50;;;28.80;60.30;;;;;;5074057;28;20044;-79
2022/09/04 11:02:06;;;;;;;2.85;1.55;;;28.90;59.60;;;;;;5074021;28;20021;-79
2022/09/04 11:04:46;;;;;;;2.67;1.40;;;28.90;59.10;;;;;;5073485;28;20112;-79
2022/09/04 11:07:34;;;;;;;1.63;0.73;;;29.00;59.20;;;;;;5074143;28;20013;-79
2022/09/04 11:10:03;;;;;;;4.32;2.05;;;29.10;59.50;;;;;;5073759;28;20056;-79
2022/09/04 11:12:53;;;;;;;3.08;1.00;;;29.30;58.20;;;;;;5073344;28;20027;-79
2022/09/04 11:15:52;;;;;;;3.60;1.45;;;29.30;58.70;;;;;;5073870;28;20429;-79
2022/09/04 11:19:01;;;;;;;3.15;1.45;;;29.30;58.00;;;;;;5073709;28;20059;-79
2022/09/04 11:22:07;;;;;;;5.85;1.40;;;29.10;58.30;;;;;;5073578;28;20104;-79
2022/09/04 11:24:52;;;;;;;3.75;1.52;;;29.00;58.60;;;;;;5073128;28;20024;-78
2022/09/04 11:27:46;;;;;;;4.18;1.20;;;29.00;58.50;;;;;;5073401;28;20241;-79
2022/09/04 11:30:19;;;;;;;2.03;1.35;;;29.10;58.60;;;;;;5073700;28;20045;-79
2022/09/04 11:32:52;;;;;;;4.70;1.52;;;29.10;58.70;;;;;;5073332;28;20021;-79
2022/09/04 11:35:45;;;;;;;1.27;0.80;;;29.00;58.00;;;;;;5073607;28;20090;-79
2022/09/04 11:38:42;;;;;;;3.00;1.20;;;28.80;58.20;;;;;;5073326;28;20016;-79
2022/09/04 11:41:20;;;;;;;1.92;0.77;;;28.80;58.10;;;;;;5073329;28;20028;-79
2022/09/04 11:43:51;;;;;;;2.20;1.00;;;28.80;58.10;;;;;;5073582;28;20032;-79
2022/09/04 11:46:50;;;;;;;3.17;0.70;;;28.70;58.10;;;;;;5073095;28;20073;-79
2022/09/04 11:49:41;;;;;;;1.55;0.70;;;28.70;58.10;;;;;;5073468;28;20043;-79
2022/09/04 11:52:39;;;;;;;2.58;0.90;;;28.70;58.00;;;;;;5073243;28;20016;-79
2022/09/04 11:55:13;;;;;;;2.63;1.40;;;28.60;57.90;;;;;;5073393;28;20089;-79
2022/09/04 11:57:38;;;;;;;1.58;0.90;;;28.70;57.50;;;;;;5073497;28;20033;-79
2022/09/04 12:00:13;;;;;;;2.47;0.98;;;28.70;57.40;;;;;;5073368;28;20024;-79
2022/09/04 12:02:58;;;;;;;2.13;1.08;;;28.70;57.40;;;;;;5073224;28;20078;-79
2022/09/04 12:05:50;;;;;;;2.70;1.25;;;28.60;57.90;;;;;;5072724;28;20112;-79
2022/09/04 12:08:42;;;;;;;2.20;0.98;;;28.70;58.00;;;;;;5073372;28;20158;-79
2022/09/04 12:11:30;;;;;;;1.92;0.93;;;28.70;58.10;;;;;;5073066;28;20035;-79
2022/09/04 12:14:07;;;;;;;2.22;1.00;;;28.60;57.90;;;;;;5073166;28;20383;-79
2022/09/04 12:16:45;;;;;;;2.67;0.77;;;28.60;58.00;;;;;;5073211;28;20052;-79
2022/09/04 12:19:30;;;;;;;1.95;0.98;;;28.60;58.20;;;;;;5073202;28;20055;-79
2022/09/04 12:22:05;;;;;;;3.95;0.75;;;28.40;58.10;;;;;;5072839;28;20032;-79
2022/09/04 12:24:58;;;;;;;2.58;0.77;;;28.40;58.30;;;;;;5072819;28;20043;-78
2022/09/04 12:27:43;;;;;;;2.53;0.85;;;28.40;59.20;;;;;;5072818;28;20040;-79
2022/09/04 12:30:22;;;;;;;2.67;0.80;;;28.50;58.60;;;;;;5073130;28;20040;-78
2022/09/04 12:33:21;;;;;;;2.13;1.00;;;28.50;58.50;;;;;;5072111;28;20476;-79
2022/09/04 12:36:20;;;;;;;1.10;0.60;;;28.50;58.30;;;;;;5072633;28;20029;-79
2022/09/04 12:39:24;;;;;;;2.10;0.93;;;28.50;57.80;;;;;;5072773;28;20376;-79
2022/09/04 12:42:10;;;;;;;1.95;1.15;;;28.50;57.70;;;;;;5072544;28;20028;-79
2022/09/04 12:44:53;;;;;;;3.10;0.90;;;28.60;58.00;;;;;;5072984;28;20047;-79
2022/09/04 12:47:21;;;;;;;3.20;1.10;;;28.50;58.30;;;;;;5072974;28;20033;-79
2022/09/04 12:50:02;;;;;;;3.30;0.70;;;28.50;58.20;;;;;;5072574;28;20029;-79
2022/09/04 12:53:03;;;;;;;3.55;1.10;;;28.60;57.90;;;;;;5072677;28;20112;-79
2022/09/04 12:55:40;;;;;;;2.60;1.10;;;28.80;57.90;;;;;;5010643;28;20040;-79
2022/09/04 12:58:41;;;;;;;2.85;1.55;;;28.90;57.50;;;;;;5064100;28;20353;-79
2022/09/04 13:01:19;;;;;;;1.60;0.70;;;28.90;56.90;;;;;;5072738;28;20035;-79
2022/09/04 13:03:47;;;;;;;2.13;0.88;;;28.70;57.30;;;;;;5072804;28;20056;-79
2022/09/04 13:06:18;;;;;;;2.08;1.05;;;28.80;57.40;;;;;;5072702;28;20070;-79
2022/09/04 13:09:23;;;;;;;3.20;0.90;;;28.80;57.70;;;;;;5072527;28;20107;-79
2022/09/04 13:12:05;;;;;;;3.75;0.80;;;28.80;57.50;;;;;;5072389;28;20044;-79
2022/09/04 13:15:18;;;;;;;1.35;0.70;;;28.70;57.20;;;;;;5073013;28;20021;-79
2022/09/04 13:18:08;;;;;;;2.15;0.80;;;28.70;57.10;;;;;;5073893;28;20103;-80
2022/09/04 13:20:46;;;;;;;1.73;0.70;;;28.70;57.80;;;;;;5075929;28;20025;-79
2022/09/04 13:23:36;;;;;;;4.10;0.80;;;28.70;57.80;;;;;;5075666;28;20476;-80
2022/09/04 13:26:08;;;;;;;1.60;0.90;;;28.90;57.70;;;;;;5075847;28;20048;-79
2022/09/04 13:28:46;;;;;;;2.50;0.75;;;29.00;57.50;;;;;;5075943;28;20444;-79
2022/09/04 13:31:18;;;;;;;3.63;1.10;;;29.10;56.80;;;;;;5075694;28;20031;-80
2022/09/04 13:34:09;;;;;;;2.40;0.65;;;29.30;56.40;;;;;;5075714;28;20047;-79
2022/09/04 13:37:09;;;;;;;1.95;0.70;;;29.40;56.20;;;;;;5075874;28;20384;-79
2022/09/04 13:39:56;;;;;;;2.50;1.02;;;29.40;56.30;;;;;;5075573;28;20491;-79
2022/09/04 13:42:24;;;;;;;1.45;0.63;;;29.30;56.20;;;;;;5075545;28;20042;-79
2022/09/04 13:45:05;;;;;;;3.25;0.40;;;29.30;56.30;;;;;;5075477;28;20021;-79
2022/09/04 13:47:39;;;;;;;5.28;0.93;;;29.30;56.30;;;;;;5075606;28;20025;-79
2022/09/04 13:50:18;;;;;;;0.88;0.50;;;29.40;56.50;;;;;;5075261;28;20465;-80
2022/09/04 13:53:15;;;;;;;2.45;0.90;;;29.40;56.00;;;;;;5075731;28;20024;-80
2022/09/04 13:55:46;;;;;;;1.38;0.40;;;29.40;56.40;;;;;;5075910;28;20028;-79
2022/09/04 13:58:19;;;;;;;4.15;0.63;;;29.30;56.20;;;;;;5075391;28;20096;-80
2022/09/04 14:00:51;;;;;;;1.52;0.55;;;29.40;56.20;;;;;;5075364;28;20025;-80
2022/09/04 14:03:32;;;;;;;1.60;0.50;;;29.50;56.00;;;;;;5075380;28;20021;-81
2022/09/04 14:05:58;;;;;;;1.83;0.30;;;29.50;55.70;;;;;;5075395;28;20043;-79
2022/09/04 14:08:29;;;;;;;2.20;0.40;;;29.60;54.90;;;;;;5075111;28;20025;-79
2022/09/04 14:11:24;;;;;;;1.25;0.50;;;29.60;54.30;;;;;;5074930;28;20036;-79
2022/09/04 14:14:10;;;;;;;0.85;0.35;;;29.70;54.50;;;;;;5074875;28;20388;-79
2022/09/04 14:16:42;;;;;;;1.73;0.40;;;29.80;54.20;;;;;;5075173;28;20024;-79
2022/09/04 14:19:39;;;;;;;0.50;0.38;;;29.90;53.90;;;;;;5074668;28;20483;-79
2022/09/04 14:22:20;;;;;;;0.82;0.30;;;29.90;53.30;;;;;;5074742;28;20024;-79
2022/09/04 14:24:49;;;;;;;1.43;0.40;;;29.90;53.50;;;;;;5074818;28;20040;-80
2022/09/04 14:27:50;;;;;;;0.80;0.30;;;29.90;53.40;;;;;;5074064;28;20262;-80